Terminal Aerodrome Forecast
Issued by NWS

Home | Current Version | Previous Version | Text Only | Print | Product List | Glossary On
Versions: 1 2 3 4 5 6 7 8 9 10 11 12 13 14 15
593
FTUS46 KLOX 241358 AAC
TAFLGB
TAF AMD
KLGB 241358Z 2414/2512 VRB03KT 5SM BR OVC008
     FM241700 16009KT 6SM HZ SCT010 SCT120
     FM242100 19008KT P6SM SCT120
     FM250500 VRB05KT P6SM SCT140
     FM251100 VRB05KT 6SM BR BKN008 BKN150=

USA.gov is the U.S. government's official web portal to all federal, state and local government web resources and services.